createdAt,value
2022-10-19T00:03:07.741Z,97540.37
2022-10-19T00:13:11.338Z,97526.62
2022-10-19T00:23:15.512Z,97535.99
2022-10-19T00:33:22.333Z,97537.20
2022-10-19T00:43:30.621Z,97529.87
2022-10-19T00:53:35.969Z,97525.63
2022-10-19T01:03:40.711Z,97519.48
2022-10-19T01:14:26.515Z,97516.04
2022-10-19T01:25:16.142Z,97501.77
2022-10-19T01:35:37.818Z,97498.15
2022-10-19T01:46:07.473Z,97495.23
2022-10-19T01:56:14.110Z,97494.45
2022-10-19T02:06:18.791Z,97496.55
2022-10-19T02:16:34.955Z,97495.19
2022-10-19T02:26:40.071Z,97493.63
2022-10-19T02:36:44.037Z,97490.28
2022-10-19T02:47:12.452Z,97479.66
2022-10-19T02:57:20.529Z,97471.90
2022-10-19T03:07:24.701Z,97470.41
2022-10-19T03:17:28.269Z,97460.14
2022-10-19T03:27:32.466Z,97461.13
2022-10-19T03:37:36.841Z,97457.01
2022-10-19T03:47:40.716Z,97458.23
2022-10-19T03:57:44.456Z,97453.28
2022-10-19T04:07:48.029Z,97445.23
2022-10-19T04:17:51.585Z,97441.76
2022-10-19T04:27:55.254Z,97429.05
2022-10-19T04:37:59.842Z,97425.86
2022-10-19T04:48:03.504Z,97420.35
2022-10-19T04:58:06.963Z,97426.00
2022-10-19T05:08:11.853Z,97430.04
2022-10-19T05:18:15.524Z,97426.94
2022-10-19T05:28:19.083Z,97430.34
2022-10-19T05:38:22.953Z,97439.27
2022-10-19T05:48:28.569Z,97436.75
2022-10-19T05:58:33.100Z,97430.52
2022-10-19T06:08:38.252Z,97440.52
2022-10-19T06:18:43.241Z,97443.58
2022-10-19T06:28:48.200Z,97450.63
2022-10-19T06:38:53.643Z,97455.57
2022-10-19T06:48:59.829Z,97466.16
2022-10-19T06:59:04.143Z,97483.20
2022-10-19T07:09:07.843Z,97511.64
2022-10-19T07:19:12.204Z,97515.04
2022-10-19T07:29:16.685Z,97526.60
2022-10-19T07:39:21.438Z,97534.20
2022-10-19T07:49:25.030Z,97538.02
2022-10-19T07:59:28.910Z,97533.11
2022-10-19T08:09:52.114Z,97519.58
2022-10-19T08:19:57.885Z,97507.03
2022-10-19T08:30:04.962Z,97500.52
2022-10-19T08:40:19.613Z,97491.48
2022-10-19T08:50:32.166Z,97484.05
2022-10-19T09:00:46.009Z,97493.15
2022-10-19T09:10:52.911Z,97502.91
2022-10-19T09:21:06.695Z,97513.20
2022-10-19T09:31:18.483Z,97512.45
2022-10-19T09:41:25.141Z,97514.42
2022-10-19T09:51:51.270Z,97507.94
2022-10-19T10:02:14.585Z,97498.19
2022-10-19T10:12:18.856Z,97496.23
2022-10-19T10:22:52.705Z,97506.42
2022-10-19T10:33:08.058Z,97512.12
2022-10-19T10:43:23.043Z,97503.45
2022-10-19T10:53:40.752Z,97494.41
2022-10-19T11:03:59.264Z,97480.40
2022-10-19T11:14:21.756Z,97496.15
2022-10-19T11:25:08.508Z,97497.42
2022-10-19T11:35:34.574Z,97517.73
2022-10-19T11:46:01.786Z,97506.25
2022-10-19T11:56:25.162Z,97493.70
2022-10-19T12:06:55.684Z,97496.21
2022-10-19T12:17:06.374Z,97481.02
2022-10-19T12:27:17.254Z,97483.18
2022-10-19T12:37:48.867Z,97479.77
2022-10-19T12:48:08.892Z,97475.77
2022-10-19T12:58:25.419Z,97484.80
2022-10-19T13:08:33.857Z,97479.48
2022-10-19T13:19:00.043Z,97485.33
2022-10-19T13:29:04.688Z,97485.13
2022-10-19T13:39:14.153Z,97494.72
2022-10-19T13:49:47.322Z,97489.57
2022-10-19T14:00:03.579Z,97496.89
2022-10-19T14:10:22.722Z,97492.73
2022-10-19T14:20:39.112Z,97501.66
2022-10-19T14:30:43.432Z,97501.43
2022-10-19T14:40:47.711Z,97498.60
2022-10-19T14:50:57.011Z,97496.21
2022-10-19T15:01:00.756Z,97495.36
2022-10-19T15:11:06.881Z,97502.98
2022-10-19T15:21:16.300Z,97494.31
2022-10-19T15:31:24.867Z,97484.37
2022-10-19T15:41:41.886Z,97485.11
2022-10-19T15:51:47.929Z,97493.42
2022-10-19T16:01:55.054Z,97502.41
2022-10-19T16:12:00.410Z,97513.13
2022-10-19T16:22:04.640Z,97532.27
2022-10-19T16:32:10.332Z,97540.70
2022-10-19T16:42:14.966Z,97548.44
2022-10-19T16:52:20.174Z,97552.82
2022-10-19T17:02:24.568Z,97550.90
2022-10-19T17:12:28.898Z,97557.58
2022-10-19T17:22:34.627Z,97567.05
2022-10-19T17:32:42.511Z,97577.94
2022-10-19T17:42:48.211Z,97580.56
2022-10-19T17:52:53.549Z,97578.80
2022-10-19T18:02:59.315Z,97593.38
2022-10-19T18:13:04.877Z,97605.66
2022-10-19T18:23:10.713Z,97610.41
2022-10-19T18:33:18.635Z,97610.23
2022-10-19T18:43:24.788Z,97619.36
2022-10-19T18:53:31.173Z,97641.12
2022-10-19T19:03:38.009Z,97651.95
2022-10-19T19:13:47.708Z,97659.92
2022-10-19T19:23:54.297Z,97661.80
2022-10-19T19:34:02.414Z,97657.91
2022-10-19T19:44:08.022Z,97673.15
2022-10-19T19:54:13.139Z,97681.89
2022-10-19T20:04:20.166Z,97689.77
2022-10-19T20:14:25.162Z,97698.55
2022-10-19T20:24:29.285Z,97701.83
2022-10-19T20:34:36.690Z,97701.70
2022-10-19T20:44:40.462Z,97705.73
2022-10-19T20:54:44.432Z,97707.39
2022-10-19T21:04:49.229Z,97707.71
2022-10-19T21:14:52.893Z,97711.42
2022-10-19T21:24:56.581Z,97713.95
2022-10-19T21:35:00.729Z,97707.17
2022-10-19T21:45:25.725Z,97707.56
2022-10-19T21:55:30.072Z,97710.44
2022-10-19T22:05:34.043Z,97713.80
2022-10-19T22:15:38.926Z,97711.51
2022-10-19T22:25:42.518Z,97712.02
2022-10-19T22:35:55.264Z,97722.31
2022-10-19T22:45:58.949Z,97731.90
2022-10-19T22:56:03.004Z,97733.71
2022-10-19T23:06:12.213Z,97722.05
2022-10-19T23:16:16.235Z,97727.14
2022-10-19T23:26:21.583Z,97731.02
2022-10-19T23:36:28.111Z,97733.29
2022-10-19T23:46:31.876Z,97741.00
2022-10-19T23:56:35.449Z,97746.47
